Time;durP1;ratioP1;P1;durP2;ratioP2;P2;SDS_P1;SDS_P2;PMS_P1;PMS_P2;Temp;Humidity;BMP_temperature;BMP_pressure;BME280_temperature;BME280_humidity;BME280_pressure;Samples;Min_cycle;Max_cycle;Signal;HPM_P1;HPM_P2
2022/10/19 00:01:05;;;;;;;58.67;37.43;;;17.10;85.70;;;;;;5004551;28;20267;-70
2022/10/19 00:03:34;;;;;;;55.33;36.67;;;17.10;85.80;;;;;;5013096;28;20202;-70
2022/10/19 00:06:16;;;;;;;57.83;36.43;;;17.00;85.90;;;;;;5004272;28;20224;-70
2022/10/19 00:08:44;;;;;;;56.60;36.03;;;17.00;86.00;;;;;;5008508;28;20236;-69
2022/10/19 00:11:12;;;;;;;59.40;37.63;;;16.90;86.00;;;;;;5021184;28;20216;-69
2022/10/19 00:13:39;;;;;;;56.73;37.60;;;16.90;86.10;;;;;;5006634;28;20261;-70
2022/10/19 00:16:13;;;;;;;50.90;35.13;;;16.90;86.10;;;;;;5007788;28;20268;-70
2022/10/19 00:18:44;;;;;;;56.10;38.33;;;16.90;86.20;;;;;;5007466;28;20257;-69
2022/10/19 00:21:17;;;;;;;56.10;36.63;;;16.90;86.20;;;;;;5008088;28;20271;-70
2022/10/19 00:23:45;;;;;;;54.63;37.37;;;16.80;86.00;;;;;;5020247;28;20584;-69
2022/10/19 00:26:13;;;;;;;51.07;37.53;;;16.80;85.80;;;;;;5009674;28;20208;-70
2022/10/19 00:28:42;;;;;;;51.97;34.80;;;16.80;85.90;;;;;;5012690;28;20296;-69
2022/10/19 00:31:16;;;;;;;49.03;35.07;;;16.70;85.90;;;;;;5010535;28;20291;-69
2022/10/19 00:33:45;;;;;;;52.47;35.53;;;16.70;86.00;;;;;;5006659;28;20192;-69
2022/10/19 00:36:34;;;;;;;55.90;38.03;;;16.80;86.10;;;;;;5003773;28;20199;-69
2022/10/19 00:39:03;;;;;;;55.70;36.03;;;16.80;86.30;;;;;;5008821;28;20226;-70
2022/10/19 00:41:32;;;;;;;52.87;36.00;;;16.70;86.30;;;;;;5000783;28;20209;-69
2022/10/19 00:44:06;;;;;;;56.97;37.47;;;16.70;86.30;;;;;;5004005;28;20196;-70
2022/10/19 00:46:37;;;;;;;54.43;37.63;;;16.70;86.50;;;;;;5014061;28;20208;-70
2022/10/19 00:49:14;;;;;;;55.53;36.17;;;16.70;86.60;;;;;;5005824;28;20328;-69
2022/10/19 00:51:45;;;;;;;53.43;36.50;;;16.70;86.70;;;;;;5002944;28;20292;-69
2022/10/19 00:54:15;;;;;;;56.17;36.63;;;16.70;86.60;;;;;;5020698;28;20279;-69
2022/10/19 00:56:46;;;;;;;58.97;38.10;;;16.60;86.60;;;;;;4995778;28;20200;-69
2022/10/19 00:59:17;;;;;;;59.20;36.67;;;16.60;86.70;;;;;;5036201;28;20204;-70
2022/10/19 01:01:45;;;;;;;58.00;39.07;;;16.60;86.90;;;;;;5004164;28;20284;-69
2022/10/19 01:04:13;;;;;;;61.23;40.37;;;16.60;86.90;;;;;;5003065;28;20276;-70
2022/10/19 01:06:41;;;;;;;63.83;42.40;;;16.60;86.80;;;;;;5001495;28;20201;-70
2022/10/19 01:09:08;;;;;;;67.33;42.87;;;16.60;87.10;;;;;;4999863;28;20223;-70
2022/10/19 01:11:44;;;;;;;70.73;39.90;;;16.60;87.30;;;;;;5004092;28;20291;-69
2022/10/19 01:14:30;;;;;;;64.77;42.13;;;16.60;87.60;;;;;;5011290;28;20637;-70
2022/10/19 01:17:27;;;;;;;61.50;39.97;;;16.60;87.70;;;;;;5011063;28;20200;-70
2022/10/19 01:20:25;;;;;;;62.30;37.50;;;16.60;87.80;;;;;;5011794;28;20240;-69
2022/10/19 01:23:22;;;;;;;61.97;39.60;;;16.60;87.90;;;;;;5009252;28;20223;-69
2022/10/19 01:26:04;;;;;;;60.70;37.53;;;16.50;87.90;;;;;;5010352;28;20213;-69
2022/10/19 01:29:09;;;;;;;63.47;39.63;;;16.50;87.80;;;;;;5001222;28;20200;-69
2022/10/19 01:32:18;;;;;;;59.50;39.00;;;16.50;88.00;;;;;;5006042;28;20223;-69
2022/10/19 01:35:04;;;;;;;58.83;38.50;;;16.50;87.90;;;;;;5013164;28;20217;-69
2022/10/19 01:37:54;;;;;;;56.10;38.20;;;16.40;87.80;;;;;;5020453;28;20308;-69
2022/10/19 01:40:21;;;;;;;60.13;37.40;;;16.50;87.90;;;;;;5002804;28;20225;-69
2022/10/19 01:43:06;;;;;;;59.60;37.80;;;16.40;87.80;;;;;;5007007;28;20194;-69
2022/10/19 01:45:44;;;;;;;57.07;36.90;;;16.40;87.70;;;;;;5001545;28;20215;-69
2022/10/19 01:48:20;;;;;;;58.03;37.50;;;16.40;87.70;;;;;;5006824;28;20570;-69
2022/10/19 01:51:03;;;;;;;57.43;38.20;;;16.40;87.70;;;;;;5004665;28;20294;-70
2022/10/19 01:53:38;;;;;;;53.20;35.53;;;16.40;87.70;;;;;;5003486;28;20273;-70
2022/10/19 01:56:07;;;;;;;69.40;41.30;;;16.30;87.60;;;;;;5003657;28;20199;-70
2022/10/19 01:58:37;;;;;;;63.00;41.43;;;16.30;87.70;;;;;;5001674;28;20197;-70
2022/10/19 02:01:07;;;;;;;60.83;39.27;;;16.30;87.90;;;;;;5004624;28;20218;-70
2022/10/19 02:03:36;;;;;;;58.40;38.73;;;16.30;88.00;;;;;;5022139;28;20312;-69
2022/10/19 02:06:07;;;;;;;59.20;37.50;;;16.30;88.10;;;;;;5008876;28;20207;-69
2022/10/19 02:08:42;;;;;;;60.40;38.43;;;16.30;88.10;;;;;;5001428;28;20206;-69
2022/10/19 02:11:09;;;;;;;57.40;39.10;;;16.20;88.00;;;;;;5018532;28;20274;-69
2022/10/19 02:13:38;;;;;;;59.93;40.30;;;16.20;88.10;;;;;;5001252;28;20223;-70
2022/10/19 02:16:09;;;;;;;62.37;41.07;;;16.20;88.20;;;;;;4994693;28;20204;-70
2022/10/19 02:18:41;;;;;;;56.60;37.57;;;16.20;88.20;;;;;;5004929;28;20212;-70
2022/10/19 02:21:09;;;;;;;59.20;38.97;;;16.20;88.90;;;;;;5005367;28;20243;-70
2022/10/19 02:23:36;;;;;;;57.93;38.27;;;16.20;88.30;;;;;;5003223;28;20204;-70
2022/10/19 02:26:03;;;;;;;60.83;39.87;;;16.20;88.30;;;;;;5006775;28;20656;-69
2022/10/19 02:28:31;;;;;;;68.27;42.40;;;16.20;88.40;;;;;;4999584;28;20650;-69
2022/10/19 02:30:59;;;;;;;64.80;42.50;;;16.10;88.40;;;;;;5008496;28;20211;-69
2022/10/19 02:33:27;;;;;;;65.50;41.73;;;16.10;88.60;;;;;;5005623;28;20269;-69
2022/10/19 02:35:55;;;;;;;62.43;40.47;;;16.10;88.80;;;;;;5004745;28;20258;-69
2022/10/19 02:38:23;;;;;;;68.70;42.00;;;16.10;88.90;;;;;;4999901;28;20200;-69
2022/10/19 02:41:05;;;;;;;73.50;43.10;;;16.10;89.00;;;;;;5001185;28;20203;-69
2022/10/19 02:43:36;;;;;;;68.47;41.57;;;16.10;89.10;;;;;;5002767;28;20238;-70
2022/10/19 02:46:26;;;;;;;72.80;45.77;;;16.10;89.10;;;;;;4999774;28;20199;-69
2022/10/19 02:48:56;;;;;;;73.33;44.87;;;16.10;89.20;;;;;;5004530;28;20204;-69
2022/10/19 02:51:35;;;;;;;72.37;45.10;;;16.10;89.20;;;;;;5002649;28;20224;-69
2022/10/19 02:54:04;;;;;;;73.20;46.13;;;16.10;89.20;;;;;;5001589;28;20195;-69
2022/10/19 02:56:33;;;;;;;74.23;44.93;;;16.10;89.20;;;;;;5004346;28;20561;-70
2022/10/19 02:59:00;;;;;;;78.00;48.03;;;16.00;89.40;;;;;;5001231;28;20263;-70
2022/10/19 03:01:27;;;;;;;78.63;47.93;;;16.00;89.60;;;;;;4999993;28;20565;-70
2022/10/19 03:03:55;;;;;;;70.63;43.93;;;16.00;89.80;;;;;;5006551;28;20212;-70
2022/10/19 03:06:21;;;;;;;75.93;45.60;;;16.00;89.90;;;;;;5001961;28;20657;-69
2022/10/19 03:08:49;;;;;;;68.47;44.23;;;16.00;90.00;;;;;;5001040;28;20220;-69
2022/10/19 03:11:16;;;;;;;65.17;43.20;;;16.00;90.00;;;;;;5001299;28;20220;-70
2022/10/19 03:13:43;;;;;;;70.70;43.87;;;15.90;89.90;;;;;;5000689;28;20233;-70
2022/10/19 03:16:12;;;;;;;70.23;42.70;;;15.90;89.90;;;;;;5005985;28;20621;-70
2022/10/19 03:18:39;;;;;;;74.03;44.20;;;15.90;89.80;;;;;;5008260;28;20203;-70
2022/10/19 03:21:11;;;;;;;73.03;44.33;;;15.90;89.50;;;;;;5006264;28;20242;-70
2022/10/19 03:23:39;;;;;;;65.73;43.73;;;15.90;89.30;;;;;;5004868;28;20212;-70
2022/10/19 03:26:08;;;;;;;66.90;45.00;;;15.90;89.10;;;;;;5002808;28;20200;-70
2022/10/19 03:28:38;;;;;;;66.57;43.33;;;15.80;89.00;;;;;;5007043;28;20611;-70
2022/10/19 03:31:05;;;;;;;66.43;44.13;;;15.80;89.10;;;;;;5005797;28;20306;-70
2022/10/19 03:33:32;;;;;;;71.33;45.77;;;15.80;89.20;;;;;;5007981;28;20267;-70
2022/10/19 03:36:36;;;;;;;73.57;47.43;;;15.80;89.30;;;;;;5007015;28;20212;-70
2022/10/19 03:39:07;;;;;;;74.57;44.13;;;15.80;89.70;;;;;;5006722;28;20289;-70
2022/10/19 03:41:36;;;;;;;68.17;43.87;;;15.80;89.70;;;;;;5006657;28;20223;-70
2022/10/19 03:44:05;;;;;;;64.53;41.53;;;15.80;89.90;;;;;;5005414;28;20197;-70
2022/10/19 03:46:32;;;;;;;67.37;44.23;;;15.80;90.00;;;;;;5005407;28;20278;-70
2022/10/19 03:48:59;;;;;;;69.03;43.17;;;15.80;90.00;;;;;;5005623;28;20201;-70
2022/10/19 03:51:28;;;;;;;66.93;43.93;;;15.80;90.10;;;;;;5006517;28;20224;-70
2022/10/19 03:54:05;;;;;;;67.83;45.37;;;15.80;90.10;;;;;;5006551;28;20193;-70
2022/10/19 03:56:33;;;;;;;68.87;42.37;;;15.80;90.10;;;;;;5008167;28;20200;-70
2022/10/19 03:59:02;;;;;;;66.73;42.20;;;15.80;90.10;;;;;;5005027;28;20266;-70
2022/10/19 04:01:35;;;;;;;71.20;45.57;;;15.80;90.10;;;;;;5017667;28;20529;-70
2022/10/19 04:04:05;;;;;;;84.33;46.20;;;15.80;90.10;;;;;;5007670;28;20548;-69
2022/10/19 04:06:35;;;;;;;76.20;45.67;;;15.80;90.20;;;;;;5005882;28;20207;-70
2022/10/19 04:09:04;;;;;;;70.40;45.77;;;15.80;90.20;;;;;;5004540;28;20204;-69
2022/10/19 04:11:32;;;;;;;68.67;42.40;;;15.80;90.30;;;;;;5004341;28;20212;-69
2022/10/19 04:14:00;;;;;;;69.07;46.57;;;15.80;90.30;;;;;;5005836;28;20192;-70
2022/10/19 04:16:29;;;;;;;69.13;44.87;;;15.80;90.40;;;;;;5007915;28;20195;-70
2022/10/19 04:18:57;;;;;;;73.67;46.33;;;15.80;90.40;;;;;;5011276;28;20214;-70
2022/10/19 04:21:24;;;;;;;76.70;46.43;;;15.80;90.40;;;;;;5006861;28;20606;-70
2022/10/19 04:23:52;;;;;;;77.97;48.77;;;15.80;90.40;;;;;;4990211;28;20271;-70
2022/10/19 04:26:19;;;;;;;82.13;49.33;;;15.80;90.50;;;;;;5005920;28;20270;-70
2022/10/19 04:28:47;;;;;;;84.67;49.07;;;15.80;90.50;;;;;;5003687;28;20728;-70
2022/10/19 04:31:14;;;;;;;84.13;50.57;;;15.80;90.60;;;;;;5005856;28;20234;-69
2022/10/19 04:33:41;;;;;;;79.67;49.00;;;15.80;90.60;;;;;;5007701;28;20197;-69
2022/10/19 04:36:10;;;;;;;77.63;47.70;;;15.70;90.70;;;;;;5004571;28;20216;-69
2022/10/19 04:38:38;;;;;;;76.97;45.90;;;15.70;90.70;;;;;;5004735;28;20211;-70
2022/10/19 04:41:12;;;;;;;68.40;45.00;;;15.80;90.80;;;;;;5004623;28;20240;-69
2022/10/19 04:43:39;;;;;;;73.53;47.30;;;15.70;90.80;;;;;;5004947;28;20610;-69
2022/10/19 04:46:09;;;;;;;84.70;48.20;;;15.80;90.80;;;;;;5001834;28;20645;-69
2022/10/19 04:48:37;;;;;;;72.53;43.17;;;15.70;90.70;;;;;;5004445;28;20207;-70
2022/10/19 04:51:05;;;;;;;74.97;44.27;;;15.70;90.70;;;;;;5005731;28;20227;-69
2022/10/19 04:53:33;;;;;;;78.00;46.97;;;15.70;90.70;;;;;;5005375;28;20635;-69
2022/10/19 04:56:04;;;;;;;72.10;44.80;;;15.60;90.60;;;;;;5004008;28;20203;-69
2022/10/19 04:58:31;;;;;;;73.40;44.00;;;15.60;90.50;;;;;;5002994;28;20633;-69
2022/10/19 05:00:58;;;;;;;83.17;49.67;;;15.60;90.50;;;;;;5001441;28;20212;-69
2022/10/19 05:03:25;;;;;;;84.63;47.97;;;15.50;90.50;;;;;;5003852;28;20207;-70
2022/10/19 05:05:52;;;;;;;83.20;45.53;;;15.50;90.60;;;;;;5005623;28;20649;-69
2022/10/19 05:08:19;;;;;;;76.40;46.63;;;15.50;90.70;;;;;;5004171;28;20712;-69
2022/10/19 05:10:46;;;;;;;104.20;54.93;;;15.50;90.70;;;;;;5002898;28;20559;-69
2022/10/19 05:13:13;;;;;;;72.17;47.33;;;15.50;90.70;;;;;;5005781;28;20222;-69
2022/10/19 05:15:41;;;;;;;77.83;47.27;;;15.50;90.60;;;;;;5002729;28;20201;-69
2022/10/19 05:18:08;;;;;;;80.00;48.50;;;15.40;90.50;;;;;;5002715;28;20208;-69
2022/10/19 05:20:35;;;;;;;78.87;47.93;;;15.40;90.60;;;;;;5005559;28;20244;-69
2022/10/19 05:23:02;;;;;;;86.77;48.93;;;15.40;90.70;;;;;;5012547;28;20211;-69
2022/10/19 05:25:33;;;;;;;71.67;46.43;;;15.40;90.80;;;;;;5011301;28;20269;-69
2022/10/19 05:28:00;;;;;;;90.30;46.87;;;15.40;90.90;;;;;;5003236;28;20205;-69
2022/10/19 05:30:27;;;;;;;77.17;46.80;;;15.40;91.00;;;;;;5019402;28;20293;-69
2022/10/19 05:32:54;;;;;;;70.93;42.60;;;15.40;91.00;;;;;;5004562;28;20546;-69
2022/10/19 05:35:21;;;;;;;71.53;44.63;;;15.30;91.00;;;;;;5006154;28;20803;-69
2022/10/19 05:37:54;;;;;;;64.00;41.67;;;15.30;91.00;;;;;;5001191;28;20207;-69
2022/10/19 05:40:21;;;;;;;75.73;44.87;;;15.30;91.00;;;;;;5003521;28;20211;-69
2022/10/19 05:42:48;;;;;;;67.97;42.20;;;15.30;91.00;;;;;;5002861;28;20661;-69
2022/10/19 05:45:15;;;;;;;65.03;42.27;;;15.30;91.00;;;;;;5003570;28;20255;-69
2022/10/19 05:47:42;;;;;;;62.07;40.43;;;15.20;90.90;;;;;;5001380;28;20539;-69
2022/10/19 05:50:08;;;;;;;66.80;42.83;;;15.20;90.90;;;;;;5003942;28;20346;-69
2022/10/19 05:52:35;;;;;;;71.77;42.77;;;15.20;91.00;;;;;;5004861;28;20211;-69
2022/10/19 05:55:03;;;;;;;72.47;43.07;;;15.20;91.00;;;;;;5004246;28;20638;-69
2022/10/19 05:57:31;;;;;;;68.83;41.60;;;15.20;91.10;;;;;;5003333;28;20314;-69
2022/10/19 05:59:59;;;;;;;55.23;38.27;;;15.20;91.20;;;;;;5001401;28;20629;-69
2022/10/19 06:02:26;;;;;;;60.43;39.17;;;15.30;91.20;;;;;;5004231;28;20200;-69
2022/10/19 06:04:53;;;;;;;71.63;40.40;;;15.30;91.20;;;;;;5000668;28;20215;-69
2022/10/19 06:07:20;;;;;;;65.67;39.73;;;15.20;91.10;;;;;;5000582;28;20198;-69
2022/10/19 06:09:47;;;;;;;65.97;39.27;;;15.30;91.20;;;;;;5002864;28;20211;-69
2022/10/19 06:12:14;;;;;;;59.63;38.23;;;15.30;91.10;;;;;;5001003;28;20216;-69
2022/10/19 06:14:42;;;;;;;68.93;39.17;;;15.30;91.10;;;;;;5003117;28;20719;-69
2022/10/19 06:17:09;;;;;;;59.30;36.50;;;15.40;91.10;;;;;;5002215;28;20203;-68
2022/10/19 06:19:36;;;;;;;69.23;38.90;;;15.30;91.10;;;;;;5002894;28;20200;-68
2022/10/19 06:22:03;;;;;;;53.57;35.40;;;15.40;91.10;;;;;;5002449;28;20196;-69
2022/10/19 06:24:30;;;;;;;54.53;33.07;;;15.40;91.10;;;;;;5003203;28;20573;-69
2022/10/19 06:26:57;;;;;;;52.37;33.93;;;15.50;91.10;;;;;;5035556;28;20262;-69
2022/10/19 06:29:25;;;;;;;53.23;32.97;;;15.50;91.10;;;;;;5003273;28;20212;-69
2022/10/19 06:31:53;;;;;;;53.70;32.53;;;15.50;91.10;;;;;;5002629;28;20293;-69
2022/10/19 06:34:20;;;;;;;49.93;33.20;;;15.60;91.00;;;;;;5002994;28;20199;-69
2022/10/19 06:36:47;;;;;;;49.33;34.17;;;15.60;91.00;;;;;;5007207;28;20204;-70
2022/10/19 06:39:14;;;;;;;47.77;33.10;;;15.70;91.00;;;;;;5002415;28;20205;-69
2022/10/19 06:41:41;;;;;;;47.60;32.13;;;15.80;91.00;;;;;;5001881;28;20712;-69
2022/10/19 06:44:18;;;;;;;52.70;31.43;;;15.80;91.00;;;;;;5010482;28;20305;-69
2022/10/19 06:46:44;;;;;;;50.33;31.20;;;15.90;90.90;;;;;;5032534;28;20230;-69
2022/10/19 06:49:13;;;;;;;49.07;31.80;;;16.00;90.90;;;;;;5003288;28;20205;-69
2022/10/19 06:51:40;;;;;;;60.60;34.27;;;16.10;91.00;;;;;;5002714;28;20220;-69
2022/10/19 06:54:07;;;;;;;56.60;33.43;;;16.20;90.90;;;;;;5001717;28;20268;-69
2022/10/19 06:56:35;;;;;;;64.17;37.43;;;16.40;90.70;;;;;;5003890;28;20207;-69
2022/10/19 06:59:02;;;;;;;56.50;36.40;;;16.50;90.60;;;;;;5002059;28;20200;-69
2022/10/19 07:01:29;;;;;;;63.00;38.70;;;16.70;90.60;;;;;;5000145;28;20584;-70
2022/10/19 07:03:56;;;;;;;55.70;37.90;;;16.90;90.40;;;;;;4998211;28;20201;-70
2022/10/19 07:06:26;;;;;;;61.90;40.20;;;17.10;90.20;;;;;;5003662;28;20223;-69
2022/10/19 07:08:53;;;;;;;59.30;37.70;;;17.30;89.70;;;;;;5003321;28;20209;-69
2022/10/19 07:11:21;;;;;;;63.17;39.00;;;17.50;89.20;;;;;;5000696;28;20302;-70
2022/10/19 07:13:49;;;;;;;63.30;41.17;;;17.60;88.60;;;;;;4999189;28;20212;-70
2022/10/19 07:16:17;;;;;;;67.60;40.43;;;17.80;88.20;;;;;;5002624;28;20196;-70
2022/10/19 07:18:49;;;;;;;61.93;40.33;;;17.90;87.60;;;;;;5000031;28;20208;-70
2022/10/19 07:21:17;;;;;;;66.73;42.67;;;18.10;87.50;;;;;;5002111;28;20247;-70
2022/10/19 07:23:46;;;;;;;73.60;45.93;;;18.20;87.20;;;;;;4998586;28;20201;-70
2022/10/19 07:26:20;;;;;;;67.53;43.20;;;18.30;87.10;;;;;;5003593;28;20209;-69
2022/10/19 07:28:48;;;;;;;73.53;47.13;;;18.40;86.70;;;;;;5001836;28;20294;-70
2022/10/19 07:31:19;;;;;;;71.33;45.47;;;18.50;86.50;;;;;;5002303;28;20670;-70
2022/10/19 07:33:52;;;;;;;67.27;44.53;;;18.50;86.30;;;;;;5016927;28;20275;-70
2022/10/19 07:36:19;;;;;;;63.57;41.03;;;18.60;86.40;;;;;;5002075;28;20218;-70
2022/10/19 07:38:46;;;;;;;57.37;38.20;;;18.70;86.60;;;;;;5000512;28;20335;-72
2022/10/19 07:41:16;;;;;;;59.77;37.43;;;18.70;86.50;;;;;;5004574;28;20697;-70
2022/10/19 07:43:44;;;;;;;56.57;37.47;;;18.80;86.20;;;;;;5003050;28;20199;-69
2022/10/19 07:46:13;;;;;;;50.93;34.77;;;18.90;85.80;;;;;;5000386;28;20219;-71
2022/10/19 07:48:41;;;;;;;52.07;35.83;;;19.00;85.00;;;;;;5001590;28;20210;-69
2022/10/19 07:51:10;;;;;;;49.10;34.63;;;19.10;84.60;;;;;;5002522;28;20265;-68
2022/10/19 07:53:38;;;;;;;49.80;35.17;;;19.20;84.60;;;;;;5000023;28;20202;-71
2022/10/19 07:56:08;;;;;;;51.70;34.60;;;19.30;83.70;;;;;;5002290;28;20531;-73
2022/10/19 07:58:36;;;;;;;51.97;34.17;;;19.30;83.70;;;;;;5001332;28;20190;-72
2022/10/19 08:01:15;;;;;;;52.87;36.60;;;19.40;83.70;;;;;;5000828;28;20214;-71
2022/10/19 08:03:42;;;;;;;50.67;34.83;;;19.50;82.80;;;;;;5007081;28;20207;-67
2022/10/19 08:06:30;;;;;;;52.70;35.90;;;19.50;82.80;;;;;;5005469;28;20639;-71
2022/10/19 08:08:57;;;;;;;52.47;35.67;;;19.60;82.90;;;;;;5006179;28;20257;-71
2022/10/19 08:11:31;;;;;;;54.33;36.33;;;19.70;82.80;;;;;;5004051;28;20214;-71
2022/10/19 08:13:58;;;;;;;52.47;35.97;;;19.90;82.60;;;;;;5002900;28;20203;-70
2022/10/19 08:16:39;;;;;;;48.40;34.93;;;20.00;82.30;;;;;;5004046;28;20224;-72
2022/10/19 08:19:15;;;;;;;55.50;36.30;;;20.20;81.80;;;;;;5004689;28;20199;-70
2022/10/19 08:21:44;;;;;;;51.77;36.30;;;20.40;81.30;;;;;;5004013;28;20258;-73
2022/10/19 08:24:13;;;;;;;58.07;35.57;;;20.50;80.00;;;;;;5006045;28;20204;-71
2022/10/19 08:26:41;;;;;;;49.63;35.37;;;20.60;79.80;;;;;;5006715;28;20513;-69
2022/10/19 08:29:16;;;;;;;50.63;36.40;;;20.70;79.10;;;;;;5006451;28;20260;-71
2022/10/19 08:31:45;;;;;;;47.93;36.47;;;20.70;79.30;;;;;;5005027;28;20294;-69
2022/10/19 08:34:13;;;;;;;47.70;34.87;;;20.90;79.40;;;;;;5009315;28;20215;-70
2022/10/19 08:36:40;;;;;;;50.50;33.30;;;21.00;79.70;;;;;;5004846;28;20254;-70
2022/10/19 08:39:13;;;;;;;45.77;33.13;;;21.10;78.40;;;;;;5012462;28;20638;-71
2022/10/19 08:41:46;;;;;;;51.20;34.63;;;21.20;78.20;;;;;;5008240;28;20213;-65
2022/10/19 08:44:33;;;;;;;47.90;34.70;;;21.40;77.90;;;;;;5006198;28;20331;-70
2022/10/19 08:47:15;;;;;;;53.23;36.03;;;21.50;77.10;;;;;;5001976;28;20656;-72
2022/10/19 08:49:48;;;;;;;52.33;37.87;;;21.60;76.50;;;;;;5006961;28;20265;-70
2022/10/19 08:52:23;;;;;;;53.53;37.87;;;21.80;76.10;;;;;;5005346;28;20216;-71
2022/10/19 08:54:52;;;;;;;59.47;40.80;;;21.90;75.50;;;;;;5004062;28;20227;-66
2022/10/19 08:57:34;;;;;;;59.40;39.67;;;22.00;74.80;;;;;;5002144;28;20637;-71
2022/10/19 09:00:06;;;;;;;60.40;42.80;;;22.10;74.70;;;;;;5009004;28;20188;-73
2022/10/19 09:02:54;;;;;;;57.13;40.23;;;22.10;74.40;;;;;;5006680;28;20664;-71
2022/10/19 09:05:46;;;;;;;49.50;36.07;;;22.20;74.30;;;;;;5004852;28;20591;-70
2022/10/19 09:08:15;;;;;;;56.17;40.60;;;22.30;74.20;;;;;;5005707;28;20267;-71
2022/10/19 09:10:47;;;;;;;61.53;41.33;;;22.40;74.20;;;;;;5001713;28;20217;-73
2022/10/19 09:13:35;;;;;;;61.67;41.53;;;22.60;73.90;;;;;;5019642;28;20212;-67
2022/10/19 09:16:20;;;;;;;57.87;38.97;;;22.70;73.40;;;;;;5006617;28;20202;-71
2022/10/19 09:18:48;;;;;;;55.10;39.87;;;22.80;73.00;;;;;;5004452;28;20557;-69
2022/10/19 09:21:21;;;;;;;60.90;41.77;;;22.90;72.50;;;;;;5003398;28;20235;-68
2022/10/19 09:24:06;;;;;;;57.97;40.30;;;23.00;72.20;;;;;;5004430;28;20201;-73
2022/10/19 09:26:41;;;;;;;60.80;41.73;;;23.10;71.80;;;;;;5012454;28;20216;-71
2022/10/19 09:29:33;;;;;;;62.80;44.30;;;23.20;71.40;;;;;;5005225;28;20228;-70
2022/10/19 09:32:04;;;;;;;60.93;43.47;;;23.30;70.80;;;;;;5009066;28;20220;-71
2022/10/19 09:34:34;;;;;;;62.33;44.60;;;23.40;70.80;;;;;;5005227;28;20200;-73
2022/10/19 09:37:01;;;;;;;60.10;43.67;;;23.50;70.50;;;;;;5004019;28;20196;-70
2022/10/19 09:39:29;;;;;;;65.30;44.50;;;23.50;70.30;;;;;;5002261;28;20212;-71
2022/10/19 09:42:03;;;;;;;78.30;46.83;;;23.70;70.00;;;;;;5005162;28;20200;-72
2022/10/19 09:44:31;;;;;;;64.03;44.87;;;23.70;69.50;;;;;;5005591;28;20634;-72
2022/10/19 09:47:29;;;;;;;69.60;45.93;;;23.80;69.20;;;;;;5001850;28;20231;-72
2022/10/19 09:50:20;;;;;;;60.30;44.40;;;23.90;68.80;;;;;;5003305;28;20291;-72
2022/10/19 09:53:01;;;;;;;65.60;44.57;;;24.00;68.20;;;;;;5003043;28;20211;-70
2022/10/19 09:55:42;;;;;;;61.30;43.53;;;24.00;68.00;;;;;;5003856;28;20258;-71
2022/10/19 09:58:12;;;;;;;64.07;45.30;;;24.10;67.70;;;;;;4995422;28;20212;-73
2022/10/19 10:00:54;;;;;;;75.33;44.93;;;24.10;66.90;;;;;;5008066;28;20225;-74
2022/10/19 10:03:30;;;;;;;63.03;42.77;;;24.10;66.80;;;;;;5021526;28;20267;-73
2022/10/19 10:06:13;;;;;;;64.27;45.20;;;24.10;67.10;;;;;;5004015;28;20204;-73
2022/10/19 10:08:56;;;;;;;64.83;45.97;;;24.30;67.20;;;;;;5002910;28;20204;-70
2022/10/19 10:11:30;;;;;;;58.97;43.43;;;24.30;66.80;;;;;;5000744;28;20304;-73
2022/10/19 10:14:03;;;;;;;63.53;45.93;;;24.40;66.60;;;;;;5002751;28;20204;-69
2022/10/19 10:16:35;;;;;;;65.70;47.60;;;24.50;66.10;;;;;;5007455;28;20641;-70
2022/10/19 10:19:06;;;;;;;62.20;46.00;;;24.50;66.10;;;;;;5006083;28;20205;-69
2022/10/19 10:21:54;;;;;;;67.00;45.97;;;24.60;66.40;;;;;;5002306;28;20619;-71
2022/10/19 10:24:24;;;;;;;66.93;48.10;;;24.70;66.00;;;;;;5003060;28;20268;-72
2022/10/19 10:26:52;;;;;;;64.33;46.77;;;24.80;65.70;;;;;;5003557;28;20270;-72
2022/10/19 10:29:35;;;;;;;67.57;48.27;;;24.90;65.40;;;;;;5001713;28;20211;-72
2022/10/19 10:32:15;;;;;;;63.33;46.87;;;25.00;65.30;;;;;;5001597;28;20214;-72
2022/10/19 10:34:55;;;;;;;68.77;48.80;;;25.10;65.00;;;;;;5001738;28;20201;-72
2022/10/19 10:37:43;;;;;;;72.93;50.70;;;25.20;63.80;;;;;;5003359;28;20196;-72
2022/10/19 10:40:21;;;;;;;72.83;50.27;;;25.20;63.80;;;;;;5002132;28;20266;-72
2022/10/19 10:42:52;;;;;;;72.53;48.13;;;25.30;63.60;;;;;;4998669;28;20201;-72
2022/10/19 10:45:47;;;;;;;75.37;51.37;;;25.40;63.20;;;;;;5003993;28;20199;-72
2022/10/19 10:48:53;;;;;;;65.13;48.00;;;25.40;63.10;;;;;;5030194;28;20231;-72
2022/10/19 10:51:25;;;;;;;71.77;46.27;;;25.50;63.10;;;;;;4991823;28;20228;-72
2022/10/19 10:54:14;;;;;;;65.80;47.53;;;25.60;63.10;;;;;;4992346;28;20206;-72
2022/10/19 10:56:43;;;;;;;69.00;50.00;;;25.70;62.70;;;;;;5000132;28;20220;-72
2022/10/19 10:59:16;;;;;;;73.27;50.10;;;25.80;62.30;;;;;;5006823;28;20208;-72
2022/10/19 11:02:00;;;;;;;71.87;51.13;;;25.90;62.10;;;;;;5004376;28;20621;-72
2022/10/19 11:04:34;;;;;;;67.77;48.00;;;25.90;61.30;;;;;;5002610;28;20197;-72
2022/10/19 11:07:15;;;;;;;72.67;50.73;;;26.00;61.70;;;;;;5005464;28;20726;-72
2022/10/19 11:09:50;;;;;;;69.93;47.80;;;26.00;61.10;;;;;;5001981;28;20209;-72
2022/10/19 11:12:25;;;;;;;63.47;45.07;;;26.10;61.00;;;;;;5002498;28;20217;-72
2022/10/19 11:15:07;;;;;;;65.27;48.27;;;26.20;61.30;;;;;;5011580;28;20196;-72
2022/10/19 11:17:38;;;;;;;72.60;50.30;;;26.30;60.90;;;;;;5003796;28;20206;-72
2022/10/19 11:20:13;;;;;;;64.97;47.87;;;26.30;59.80;;;;;;4999473;28;20246;-72
2022/10/19 11:22:56;;;;;;;66.63;49.23;;;26.40;59.80;;;;;;5003907;28;20208;-72
2022/10/19 11:25:42;;;;;;;66.13;49.80;;;26.40;59.80;;;;;;5002329;28;20219;-72
2022/10/19 11:28:30;;;;;;;70.10;50.20;;;26.40;59.40;;;;;;5001462;28;20702;-72
2022/10/19 11:31:46;;;;;;;68.57;51.40;;;26.50;59.30;;;;;;5003961;28;20648;-72
2022/10/19 11:34:45;;;;;;;63.03;47.27;;;26.50;59.50;;;;;;5003264;28;20213;-72
2022/10/19 11:37:18;;;;;;;65.80;47.90;;;26.50;59.50;;;;;;5005075;28;20200;-72
2022/10/19 11:39:53;;;;;;;64.23;45.33;;;26.50;58.60;;;;;;5006008;28;20281;-72
2022/10/19 11:42:54;;;;;;;68.47;47.83;;;26.60;58.80;;;;;;5005760;28;20720;-72
2022/10/19 11:45:35;;;;;;;58.30;43.83;;;26.60;58.60;;;;;;5008111;28;20199;-72
2022/10/19 11:48:08;;;;;;;64.97;46.87;;;26.60;58.70;;;;;;5039385;28;20648;-72
2022/10/19 11:50:47;;;;;;;54.37;41.97;;;26.60;58.20;;;;;;5005007;28;20197;-72
2022/10/19 11:53:33;;;;;;;56.97;40.37;;;26.60;57.70;;;;;;5005206;28;20584;-72
2022/10/19 11:56:24;;;;;;;55.57;41.77;;;26.60;57.10;;;;;;5003401;28;20208;-72
2022/10/19 11:59:16;;;;;;;55.77;40.63;;;26.60;57.60;;;;;;5012690;28;20294;-72
2022/10/19 12:01:50;;;;;;;56.33;39.47;;;26.50;57.70;;;;;;5004080;28;20203;-72
2022/10/19 12:04:36;;;;;;;60.10;44.00;;;26.50;57.80;;;;;;5012369;28;20649;-72
2022/10/19 12:07:39;;;;;;;55.07;40.73;;;26.50;57.70;;;;;;5011784;28;20196;-72
2022/10/19 12:10:44;;;;;;;53.43;41.47;;;26.50;57.20;;;;;;5006231;28;20219;-72
2022/10/19 12:13:15;;;;;;;48.37;37.67;;;26.60;57.20;;;;;;5005554;28;20220;-72
2022/10/19 12:15:52;;;;;;;47.70;36.97;;;26.60;57.50;;;;;;5007225;28;20192;-72
2022/10/19 12:18:43;;;;;;;57.23;41.03;;;26.60;57.70;;;;;;5005194;28;20225;-72
2022/10/19 12:21:36;;;;;;;52.10;39.07;;;26.70;56.90;;;;;;5004050;28;20240;-72
2022/10/19 12:24:11;;;;;;;55.73;38.90;;;26.70;56.20;;;;;;5005353;28;20212;-72
2022/10/19 12:26:40;;;;;;;49.57;37.90;;;26.70;56.80;;;;;;4988377;28;20649;-72
2022/10/19 12:29:15;;;;;;;58.90;38.87;;;26.70;56.30;;;;;;5006936;28;20215;-73
2022/10/19 12:31:43;;;;;;;50.20;37.87;;;26.80;56.40;;;;;;5009767;28;20211;-70
2022/10/19 12:34:36;;;;;;;47.90;35.30;;;26.80;56.60;;;;;;5005440;28;20418;-72
2022/10/19 12:37:21;;;;;;;51.47;39.07;;;26.90;56.90;;;;;;5007151;28;20515;-72
2022/10/19 12:39:56;;;;;;;51.77;36.73;;;26.90;56.40;;;;;;5005352;28;20261;-68
2022/10/19 12:42:32;;;;;;;54.00;38.00;;;26.90;55.80;;;;;;5005683;28;20211;-73
2022/10/19 12:45:24;;;;;;;50.93;36.43;;;26.90;55.90;;;;;;5004564;28;20601;-73
2022/10/19 12:48:11;;;;;;;45.47;35.43;;;26.90;56.00;;;;;;5000976;28;20211;-72
2022/10/19 12:50:48;;;;;;;48.37;34.40;;;26.80;55.20;;;;;;5002877;28;20284;-74
2022/10/19 12:53:37;;;;;;;37.77;31.50;;;26.70;55.40;;;;;;5007444;28;20218;-74
2022/10/19 12:56:24;;;;;;;43.40;31.70;;;26.70;55.10;;;;;;5005031;28;20204;-73
2022/10/19 12:59:00;;;;;;;45.77;34.13;;;26.60;54.70;;;;;;5004399;28;20203;-70